Etusivu
METAR-TAF:

METAR-TAF

Lentoasemat :

Guadalupe Mountainsin kansallispuisto

Pine Springs, Texas, Yhdysvallat

Leveyspiiri: 31-49-52N, Pituuspiiri: 104-48-32W, korkeus merenpinnasta: 1661 m

Tämänhetkinen sää

Tämä raportti tehtiin 53 minuuttia sitten, kello 10.51 UTC
Tuuli 28 kn lännestä/lounaasta puuskistuen 34 kn:hen
Lämpötila 7°C
Kosteus 39%
Ilmanpaine 1009 hPa
Näkyvyys: 16.1 km
selkeää

METAR: KGDP 211051Z AUTO 24028G34KT 10SM CLR 07/M06 A2980 RMK AO2 PK WND 25039/1012 SLP032 T00721061

Aika: 06:44 (11:44 UTC)


TAF: puuttuu

Säähavainnot ja -ennusteet yli 4000 lentoasemalta (METAR- ja TAF-raportit).

Käytössä olevat sääasemat on merkitty karttaan keltaisilla ja punaisilla pisteillä.

Aseta hiiri pisteen päälle nähdäksesi sääaseman nimen.

Klikkaa sitten nähdäksesi säähavainnot ja -ennusteet.

Kartan vaihtaminen: klikkaa mustalla rastilla varustettuja vihreitä pisteitä, niin voit zoomata sisään; viivalla varustettua vihreää pistettä, niin voit zoomata ulos tai vihreitä nuolia, niin pääset viereisille kartoille.


METAR-TAF: